Time;durP1;ratioP1;P1;durP2;ratioP2;P2;SDS_P1;SDS_P2;PMS_P1;PMS_P2;Temp;Humidity;BMP_temperature;BMP_pressure;BME280_temperature;BME280_humidity;BME280_pressure;Samples;Min_cycle;Max_cycle;Signal;HPM_P1;HPM_P2
2024/01/24 00:00:06;;;;;;;17.15;3.67;;;12.80;72.20;;;;;;5072058;28;20466;-75
2024/01/24 00:02:32;;;;;;;15.85;4.47;;;12.80;71.20;;;;;;5071255;28;20522;-73
2024/01/24 00:04:58;;;;;;;7.90;2.80;;;12.80;70.80;;;;;;5072828;28;20380;-74
2024/01/24 00:07:24;;;;;;;8.07;3.37;;;12.80;70.90;;;;;;5071870;28;20387;-74
2024/01/24 00:09:49;;;;;;;11.77;4.07;;;12.90;71.20;;;;;;5072685;28;20380;-74
2024/01/24 00:12:15;;;;;;;15.90;4.10;;;12.90;71.30;;;;;;5071349;28;20384;-73
2024/01/24 00:14:41;;;;;;;11.60;3.70;;;12.90;71.70;;;;;;5071678;28;20379;-74
2024/01/24 00:17:07;;;;;;;10.32;3.10;;;12.90;71.60;;;;;;5054599;28;20439;-74
2024/01/24 00:19:33;;;;;;;12.68;3.33;;;12.90;71.80;;;;;;5071476;28;20417;-75
2024/01/24 00:22:00;;;;;;;11.10;3.95;;;12.90;72.00;;;;;;5071997;28;20437;-74
2024/01/24 00:24:25;;;;;;;12.95;3.63;;;12.90;71.80;;;;;;5072194;28;20747;-74
2024/01/24 00:26:54;;;;;;;12.90;3.30;;;13.00;71.70;;;;;;5076305;28;20394;-74
2024/01/24 00:29:20;;;;;;;9.45;3.60;;;13.00;72.20;;;;;;5077541;28;20431;-74
2024/01/24 00:31:48;;;;;;;12.23;3.60;;;13.00;72.10;;;;;;5076092;28;20411;-74
2024/01/24 00:34:14;;;;;;;8.65;3.15;;;13.00;72.10;;;;;;5075247;28;20440;-75
2024/01/24 00:36:40;;;;;;;10.43;3.55;;;13.00;73.00;;;;;;5073224;28;20383;-73
2024/01/24 00:39:07;;;;;;;8.52;3.00;;;13.00;73.40;;;;;;5071529;28;20908;-73
2024/01/24 00:41:41;;;;;;;8.23;3.10;;;13.00;73.20;;;;;;5074546;28;20407;-72
2024/01/24 00:44:09;;;;;;;8.02;3.00;;;13.10;72.90;;;;;;5074155;28;20399;-74
2024/01/24 00:46:35;;;;;;;10.10;3.45;;;13.10;73.00;;;;;;5054970;28;20380;-74
2024/01/24 00:49:09;;;;;;;10.00;3.20;;;13.10;72.90;;;;;;5073574;28;20617;-73
2024/01/24 00:51:36;;;;;;;11.63;3.75;;;13.10;72.60;;;;;;5071279;28;20414;-73
2024/01/24 00:54:02;;;;;;;10.38;3.40;;;13.20;72.20;;;;;;5071367;28;20834;-73
2024/01/24 00:56:27;;;;;;;7.55;3.38;;;13.20;72.10;;;;;;5070965;28;20383;-73
2024/01/24 00:58:53;;;;;;;7.10;3.07;;;13.20;71.80;;;;;;5070738;28;20403;-74
2024/01/24 01:01:20;;;;;;;7.00;3.00;;;13.20;71.20;;;;;;5071264;28;20384;-74
2024/01/24 01:03:46;;;;;;;10.27;3.45;;;13.30;70.30;;;;;;5071393;28;20437;-74
2024/01/24 01:06:12;;;;;;;8.85;2.90;;;13.20;70.20;;;;;;5071150;28;20842;-74
2024/01/24 01:08:38;;;;;;;7.32;2.83;;;13.30;69.70;;;;;;5070659;28;20430;-74
2024/01/24 01:11:05;;;;;;;7.30;3.20;;;13.30;68.70;;;;;;5073895;28;20388;-74
2024/01/24 01:13:33;;;;;;;7.82;2.80;;;13.40;68.30;;;;;;5074459;28;20482;-74
2024/01/24 01:15:59;;;;;;;10.60;3.15;;;13.30;67.80;;;;;;5074752;28;20394;-74
2024/01/24 01:18:25;;;;;;;7.72;2.58;;;13.40;66.70;;;;;;5073852;28;20400;-74
2024/01/24 01:20:50;;;;;;;6.57;2.38;;;13.50;66.10;;;;;;5074901;28;20873;-74
2024/01/24 01:23:16;;;;;;;6.55;2.90;;;13.40;65.70;;;;;;5074273;28;20429;-74
2024/01/24 01:25:42;;;;;;;9.35;2.78;;;13.50;64.60;;;;;;5056281;28;20391;-74
2024/01/24 01:28:08;;;;;;;10.20;2.70;;;13.50;64.40;;;;;;5074184;28;20383;-76
2024/01/24 01:30:34;;;;;;;8.30;2.60;;;13.50;63.80;;;;;;5073682;28;20384;-73
2024/01/24 01:33:00;;;;;;;6.70;2.73;;;13.60;63.50;;;;;;5073875;28;20398;-75
2024/01/24 01:35:26;;;;;;;6.45;2.00;;;13.60;63.00;;;;;;5073572;28;20375;-74
2024/01/24 01:37:52;;;;;;;5.50;2.42;;;13.70;62.30;;;;;;5072897;28;20399;-74
2024/01/24 01:40:18;;;;;;;7.60;2.42;;;13.70;61.90;;;;;;5073015;28;20384;-74
2024/01/24 01:42:45;;;;;;;4.50;2.00;;;13.70;61.50;;;;;;5073218;28;20380;-74
2024/01/24 01:45:13;;;;;;;7.30;2.30;;;13.80;61.10;;;;;;5073561;28;20387;-73
2024/01/24 01:47:40;;;;;;;8.70;2.38;;;13.90;60.30;;;;;;5073579;28;20392;-74
2024/01/24 01:50:09;;;;;;;6.00;2.00;;;13.90;59.70;;;;;;5073412;28;20822;-74
2024/01/24 01:52:35;;;;;;;7.32;2.30;;;13.90;59.70;;;;;;5073876;28;20945;-74
2024/01/24 01:55:01;;;;;;;4.90;1.83;;;13.90;59.60;;;;;;5073366;28;20380;-74
2024/01/24 01:57:27;;;;;;;5.35;2.08;;;13.90;59.20;;;;;;5073402;28;20410;-74
2024/01/24 01:59:53;;;;;;;5.55;2.00;;;13.90;59.10;;;;;;5073956;28;20407;-74
2024/01/24 02:02:19;;;;;;;5.18;1.60;;;13.90;58.90;;;;;;5074701;28;20751;-74
2024/01/24 02:04:45;;;;;;;5.25;1.90;;;14.00;58.10;;;;;;5074960;28;20379;-74
2024/01/24 02:07:11;;;;;;;4.90;1.70;;;14.00;58.00;;;;;;5074337;28;20409;-74
2024/01/24 02:09:40;;;;;;;4.95;1.80;;;14.10;57.30;;;;;;5073707;28;20411;-74
2024/01/24 02:12:06;;;;;;;3.60;1.40;;;14.10;57.00;;;;;;5073212;28;20440;-74
2024/01/24 02:14:31;;;;;;;3.60;1.60;;;14.10;57.00;;;;;;5073778;28;20474;-73
2024/01/24 02:16:57;;;;;;;8.10;1.90;;;14.10;56.50;;;;;;5072926;28;20396;-74
2024/01/24 02:19:23;;;;;;;5.87;1.80;;;14.20;55.90;;;;;;5054827;28;20873;-75
2024/01/24 02:21:49;;;;;;;3.90;1.40;;;14.20;56.00;;;;;;5072208;28;20375;-73
2024/01/24 02:24:15;;;;;;;4.53;1.50;;;14.30;55.50;;;;;;5072471;28;20384;-74
2024/01/24 02:26:43;;;;;;;2.78;1.67;;;14.30;55.50;;;;;;5072859;28;20380;-74
2024/01/24 02:29:11;;;;;;;4.38;1.33;;;14.30;55.70;;;;;;5072461;28;20398;-74
2024/01/24 02:31:37;;;;;;;3.00;1.30;;;14.30;55.60;;;;;;5073010;28;20395;-74
2024/01/24 02:34:06;;;;;;;2.60;1.20;;;14.30;55.40;;;;;;5072101;28;20794;-73
2024/01/24 02:36:32;;;;;;;2.88;1.60;;;14.30;55.50;;;;;;5071954;28;20420;-74
2024/01/24 02:38:57;;;;;;;2.13;1.40;;;14.30;55.80;;;;;;5072346;28;20462;-73
2024/01/24 02:41:26;;;;;;;2.90;1.50;;;14.20;55.30;;;;;;5073153;28;20383;-72
2024/01/24 02:43:52;;;;;;;2.85;1.20;;;14.30;55.30;;;;;;5072240;28;20379;-73
2024/01/24 02:46:18;;;;;;;1.40;1.15;;;14.30;54.80;;;;;;5071914;28;20927;-73
2024/01/24 02:48:44;;;;;;;2.30;1.30;;;14.30;54.40;;;;;;5071677;28;20484;-74
2024/01/24 02:51:13;;;;;;;2.17;1.20;;;14.30;54.40;;;;;;5071695;28;20380;-75
2024/01/24 02:53:39;;;;;;;3.58;1.60;;;14.30;54.70;;;;;;5072105;28;20380;-74
2024/01/24 02:56:05;;;;;;;3.92;1.35;;;14.30;54.70;;;;;;5071734;28;20387;-74
2024/01/24 02:58:31;;;;;;;2.70;1.00;;;14.30;54.90;;;;;;5071739;28;20461;-74
2024/01/24 03:00:59;;;;;;;2.63;1.20;;;14.30;55.50;;;;;;5072201;28;20767;-74
2024/01/24 03:03:28;;;;;;;3.00;1.50;;;14.30;56.10;;;;;;5072444;28;20758;-74
2024/01/24 03:05:54;;;;;;;2.50;1.40;;;14.30;56.30;;;;;;5071822;28;20380;-73
2024/01/24 03:08:20;;;;;;;1.20;1.00;;;14.30;56.30;;;;;;5072308;28;20449;-74
2024/01/24 03:10:46;;;;;;;3.80;1.40;;;14.20;56.60;;;;;;5071907;28;20491;-73
2024/01/24 03:13:12;;;;;;;2.38;1.08;;;14.20;57.40;;;;;;5071574;28;20425;-75
2024/01/24 03:15:38;;;;;;;1.85;1.00;;;14.20;57.40;;;;;;5071489;28;20876;-75
2024/01/24 03:18:04;;;;;;;1.30;1.00;;;14.20;57.60;;;;;;5072024;28;20816;-74
2024/01/24 03:20:30;;;;;;;1.60;1.00;;;14.20;57.80;;;;;;5072272;28;20379;-73
2024/01/24 03:22:55;;;;;;;1.30;1.20;;;14.20;58.10;;;;;;5072041;28;20432;-74
2024/01/24 03:25:21;;;;;;;2.55;1.38;;;14.20;58.40;;;;;;5072282;28;20380;-74
2024/01/24 03:27:47;;;;;;;2.90;1.10;;;14.10;58.90;;;;;;5071915;28;20391;-74
2024/01/24 03:30:14;;;;;;;1.30;0.90;;;14.10;59.10;;;;;;5071640;28;20430;-75
2024/01/24 03:32:39;;;;;;;1.40;1.00;;;14.10;59.40;;;;;;5070690;28;20818;-73
2024/01/24 03:35:07;;;;;;;3.47;1.00;;;14.10;59.80;;;;;;5071708;28;20401;-73
2024/01/24 03:37:32;;;;;;;1.50;0.90;;;14.10;60.20;;;;;;5070946;28;20436;-73
2024/01/24 03:39:58;;;;;;;2.42;0.90;;;14.00;60.80;;;;;;5071130;28;20874;-73
2024/01/24 03:42:24;;;;;;;2.97;0.90;;;14.00;62.00;;;;;;5072314;28;20390;-74
2024/01/24 03:44:50;;;;;;;2.97;0.90;;;14.00;63.10;;;;;;5072280;28;20384;-74
2024/01/24 03:47:15;;;;;;;1.80;1.20;;;13.90;64.80;;;;;;5073137;28;20418;-74
2024/01/24 03:49:41;;;;;;;2.88;0.88;;;13.90;66.40;;;;;;5073307;28;20388;-74
2024/01/24 03:52:09;;;;;;;1.17;1.00;;;13.90;67.20;;;;;;5071798;28;20387;-73
2024/01/24 03:54:35;;;;;;;1.60;1.00;;;13.90;68.20;;;;;;5072492;28;20698;-74
2024/01/24 03:57:01;;;;;;;1.93;0.83;;;13.90;69.40;;;;;;5071916;28;20502;-75
2024/01/24 03:59:27;;;;;;;1.83;0.97;;;13.80;70.40;;;;;;5072781;28;20470;-74
2024/01/24 04:01:52;;;;;;;1.67;0.90;;;13.70;72.30;;;;;;5071038;28;20458;-73
2024/01/24 04:04:18;;;;;;;2.10;0.90;;;13.70;74.10;;;;;;5071177;28;20393;-75
2024/01/24 04:06:44;;;;;;;3.20;1.00;;;13.60;74.80;;;;;;5053289;28;20442;-74
2024/01/24 04:09:09;;;;;;;1.33;0.93;;;13.60;75.70;;;;;;5071173;28;20380;-74
2024/01/24 04:11:37;;;;;;;1.10;0.80;;;13.60;75.70;;;;;;5070901;28;20375;-74
2024/01/24 04:14:05;;;;;;;1.50;0.70;;;13.60;75.80;;;;;;5070870;28;20412;-74
2024/01/24 04:16:30;;;;;;;2.35;0.85;;;13.60;75.40;;;;;;5070848;28;20458;-74
2024/01/24 04:18:56;;;;;;;1.00;0.80;;;13.60;75.40;;;;;;5071108;28;20454;-74
2024/01/24 04:21:22;;;;;;;0.95;0.80;;;13.60;74.90;;;;;;5071977;28;20391;-75
2024/01/24 04:23:48;;;;;;;0.90;0.70;;;13.60;74.90;;;;;;5072706;28;20462;-73
2024/01/24 04:26:14;;;;;;;1.00;0.70;;;13.60;74.80;;;;;;5070888;28;20521;-74
2024/01/24 04:28:39;;;;;;;0.90;0.70;;;13.70;75.00;;;;;;5053213;28;20395;-73
2024/01/24 04:31:05;;;;;;;1.47;0.70;;;13.60;77.00;;;;;;5070795;28;20750;-73
2024/01/24 04:33:31;;;;;;;0.90;0.60;;;13.50;78.60;;;;;;5071795;28;20863;-74
2024/01/24 04:35:56;;;;;;;1.20;0.70;;;13.50;79.20;;;;;;5071381;28;20390;-72
2024/01/24 04:38:22;;;;;;;2.78;0.70;;;13.50;80.00;;;;;;5070826;28;20411;-74
2024/01/24 04:40:48;;;;;;;1.90;1.00;;;13.40;80.70;;;;;;5071774;28;20375;-73
2024/01/24 04:43:13;;;;;;;2.47;0.80;;;13.40;80.20;;;;;;5071267;28;20376;-73
2024/01/24 04:45:39;;;;;;;3.67;1.00;;;13.40;73.40;;;;;;5072740;28;20371;-75
2024/01/24 04:48:08;;;;;;;1.30;0.70;;;13.30;71.40;;;;;;5074763;28;20391;-74
2024/01/24 04:50:34;;;;;;;3.55;1.10;;;13.30;62.60;;;;;;5074870;28;20448;-74
2024/01/24 04:53:00;;;;;;;4.37;1.40;;;13.40;57.20;;;;;;5075263;28;20383;-74
2024/01/24 04:55:25;;;;;;;4.72;1.35;;;13.40;55.10;;;;;;5074965;28;20919;-76
2024/01/24 04:57:51;;;;;;;8.55;1.70;;;13.50;51.80;;;;;;5074662;28;20388;-73
2024/01/24 05:00:17;;;;;;;5.00;1.38;;;13.50;51.40;;;;;;5074853;28;20379;-74
2024/01/24 05:02:43;;;;;;;5.35;1.10;;;13.50;49.50;;;;;;5075256;28;20833;-74
2024/01/24 05:05:09;;;;;;;6.70;1.35;;;13.60;47.70;;;;;;5074760;28;21006;-74
2024/01/24 05:07:35;;;;;;;8.07;1.40;;;13.60;48.30;;;;;;5074732;28;20384;-74
2024/01/24 05:10:04;;;;;;;4.47;1.38;;;13.60;48.30;;;;;;5074204;28;20608;-73
2024/01/24 05:12:30;;;;;;;2.55;1.10;;;13.50;49.30;;;;;;5073564;28;20409;-73
2024/01/24 05:14:57;;;;;;;11.23;1.95;;;13.40;48.60;;;;;;5073998;28;20388;-73
2024/01/24 05:17:22;;;;;;;4.90;1.30;;;13.40;48.30;;;;;;5074237;28;20400;-74
2024/01/24 05:19:57;;;;;;;5.50;1.40;;;13.40;47.60;;;;;;5073682;28;20946;-74
2024/01/24 05:22:23;;;;;;;5.55;1.30;;;13.40;48.10;;;;;;5073685;28;20379;-74
2024/01/24 05:24:49;;;;;;;8.80;1.50;;;13.50;48.90;;;;;;5074288;28;20785;-74
2024/01/24 05:27:15;;;;;;;7.90;1.50;;;13.40;49.40;;;;;;5073675;28;20380;-73
2024/01/24 05:29:41;;;;;;;7.57;1.85;;;13.40;49.10;;;;;;5074401;28;20380;-75
2024/01/24 05:32:07;;;;;;;8.25;1.60;;;13.40;47.80;;;;;;5073369;28;20395;-73
2024/01/24 05:34:32;;;;;;;5.87;1.90;;;13.40;47.70;;;;;;5073660;28;20387;-76
2024/01/24 05:36:59;;;;;;;8.13;1.37;;;13.40;46.20;;;;;;5073724;28;20411;-74
2024/01/24 05:39:25;;;;;;;9.82;1.80;;;13.40;46.20;;;;;;5074912;28;20501;-72
2024/01/24 05:41:51;;;;;;;11.45;2.20;;;13.40;46.60;;;;;;5075768;28;20380;-75
2024/01/24 05:44:19;;;;;;;5.55;1.70;;;13.40;46.50;;;;;;5075853;28;20372;-75
2024/01/24 05:46:44;;;;;;;10.02;2.05;;;13.40;45.90;;;;;;5076252;28;20405;-74
2024/01/24 05:49:10;;;;;;;11.68;2.40;;;13.40;44.90;;;;;;5074808;28;20757;-74
2024/01/24 05:51:36;;;;;;;11.48;2.88;;;13.40;44.60;;;;;;5074272;28;20903;-75
2024/01/24 05:54:02;;;;;;;13.98;3.13;;;13.30;43.60;;;;;;5073551;28;20395;-74
2024/01/24 05:56:28;;;;;;;17.55;3.30;;;13.30;43.70;;;;;;5073652;28;20387;-74
2024/01/24 05:58:53;;;;;;;17.92;2.90;;;13.30;42.50;;;;;;5073971;28;20426;-73
2024/01/24 06:01:19;;;;;;;19.10;4.10;;;13.30;41.00;;;;;;5073786;28;20691;-75
2024/01/24 06:03:45;;;;;;;16.27;3.47;;;13.40;40.20;;;;;;5072972;28;20386;-73
2024/01/24 06:06:10;;;;;;;14.23;3.10;;;13.30;40.60;;;;;;5073648;28;20386;-74
2024/01/24 06:08:37;;;;;;;14.57;3.28;;;13.40;39.90;;;;;;5074024;28;20398;-75
2024/01/24 06:11:03;;;;;;;19.10;3.33;;;13.40;39.70;;;;;;5073721;28;20387;-74
2024/01/24 06:13:28;;;;;;;15.10;3.20;;;13.40;39.80;;;;;;5073827;28;20387;-74
2024/01/24 06:15:54;;;;;;;24.63;3.57;;;13.40;40.10;;;;;;5085799;28;20381;-73
2024/01/24 06:18:20;;;;;;;17.73;3.03;;;13.40;39.90;;;;;;5091929;28;20824;-73
2024/01/24 06:20:45;;;;;;;13.87;3.40;;;13.40;40.30;;;;;;5086317;28;20394;-75
2024/01/24 06:23:12;;;;;;;17.93;4.03;;;13.40;40.50;;;;;;5094431;28;20374;-74
2024/01/24 06:25:37;;;;;;;17.35;3.60;;;13.40;40.70;;;;;;5094433;28;20537;-74
2024/01/24 06:28:03;;;;;;;21.02;3.50;;;13.40;41.10;;;;;;5094027;28;20490;-73
2024/01/24 06:30:29;;;;;;;13.68;3.38;;;13.40;41.00;;;;;;5075992;28;20386;-74
2024/01/24 06:32:55;;;;;;;17.25;3.47;;;13.40;41.40;;;;;;5090040;28;20403;-72
2024/01/24 06:35:21;;;;;;;16.52;3.53;;;13.40;41.30;;;;;;5093910;28;20401;-76
2024/01/24 06:37:48;;;;;;;17.08;3.55;;;13.40;41.40;;;;;;5084508;28;20420;-71
2024/01/24 06:40:14;;;;;;;20.42;3.90;;;13.40;41.30;;;;;;5089006;28;20382;-71
2024/01/24 06:42:40;;;;;;;21.88;3.58;;;13.40;41.30;;;;;;5091330;28;20370;-71
2024/01/24 06:45:09;;;;;;;19.00;3.80;;;13.30;40.90;;;;;;5075078;28;20443;-74
2024/01/24 06:47:35;;;;;;;14.57;3.80;;;13.30;40.20;;;;;;5074962;28;20386;-73
2024/01/24 06:50:01;;;;;;;20.65;4.13;;;13.30;40.20;;;;;;5091198;28;20409;-70
2024/01/24 06:52:28;;;;;;;25.98;4.70;;;13.20;40.00;;;;;;5090125;28;20424;-73
2024/01/24 06:54:54;;;;;;;24.00;3.97;;;13.30;40.60;;;;;;5077387;28;20761;-70
2024/01/24 06:57:19;;;;;;;25.05;4.40;;;13.30;40.40;;;;;;5079697;28;20404;-70
2024/01/24 06:59:46;;;;;;;32.30;5.40;;;13.20;40.50;;;;;;5074987;28;20388;-73
2024/01/24 07:02:13;;;;;;;29.70;4.93;;;13.20;39.30;;;;;;5087681;28;20386;-71
2024/01/24 07:04:38;;;;;;;26.60;5.37;;;13.20;39.40;;;;;;5079198;28;20418;-73
2024/01/24 07:07:04;;;;;;;30.40;5.95;;;13.20;39.20;;;;;;5089520;28;20409;-71
2024/01/24 07:09:30;;;;;;;25.20;5.53;;;13.20;38.90;;;;;;5090567;28;20425;-71
2024/01/24 07:11:55;;;;;;;34.40;5.80;;;13.20;39.00;;;;;;5075537;28;20384;-72
2024/01/24 07:14:21;;;;;;;30.70;5.60;;;13.10;39.10;;;;;;5072788;28;20425;-74
2024/01/24 07:16:48;;;;;;;31.00;6.25;;;13.20;39.40;;;;;;5072987;28;20456;-74
2024/01/24 07:19:14;;;;;;;32.25;5.30;;;13.20;38.50;;;;;;5072826;28;20440;-74
2024/01/24 07:21:39;;;;;;;30.00;5.80;;;13.10;38.40;;;;;;5071622;28;20422;-73
2024/01/24 07:24:05;;;;;;;29.17;5.80;;;13.10;38.30;;;;;;5071354;28;20483;-73
2024/01/24 07:26:31;;;;;;;36.17;6.70;;;13.10;38.50;;;;;;5071710;28;20417;-74
2024/01/24 07:28:56;;;;;;;24.70;5.73;;;13.10;38.50;;;;;;5072272;28;20407;-74
2024/01/24 07:31:22;;;;;;;38.97;6.32;;;13.10;38.70;;;;;;5071844;28;20506;-74
2024/01/24 07:33:48;;;;;;;30.70;6.68;;;13.10;38.80;;;;;;5054147;28;20439;-73
2024/01/24 07:36:13;;;;;;;35.38;6.20;;;13.10;38.80;;;;;;5071855;28;20380;-73
2024/01/24 07:38:39;;;;;;;30.67;6.55;;;13.00;39.00;;;;;;5071247;28;20483;-72
2024/01/24 07:41:07;;;;;;;38.70;6.15;;;13.10;39.30;;;;;;5071782;28;20469;-73
2024/01/24 07:43:33;;;;;;;31.58;6.70;;;13.00;38.90;;;;;;5072867;28;20376;-74
2024/01/24 07:45:58;;;;;;;29.80;6.20;;;13.00;39.20;;;;;;5073014;28;20517;-74
2024/01/24 07:48:24;;;;;;;28.50;6.00;;;12.90;39.90;;;;;;5072207;28;20462;-74
2024/01/24 07:50:50;;;;;;;32.35;6.20;;;12.90;39.20;;;;;;5071965;28;20469;-74
2024/01/24 07:53:15;;;;;;;29.27;6.30;;;12.90;38.80;;;;;;5071552;28;20402;-74
2024/01/24 07:55:42;;;;;;;30.27;6.13;;;12.90;38.90;;;;;;5074067;28;20384;-72
2024/01/24 07:58:08;;;;;;;38.28;6.35;;;12.90;38.70;;;;;;5056255;28;20632;-73
2024/01/24 08:00:34;;;;;;;30.37;6.93;;;12.80;38.90;;;;;;5071314;28;20376;-73
2024/01/24 08:03:00;;;;;;;43.72;7.43;;;12.80;38.70;;;;;;5072197;28;20372;-72
2024/01/24 08:05:29;;;;;;;36.57;6.60;;;12.80;38.90;;;;;;5072575;28;20961;-73
2024/01/24 08:07:55;;;;;;;34.90;7.00;;;12.80;39.60;;;;;;5073033;28;20778;-74
2024/01/24 08:10:20;;;;;;;33.87;6.37;;;12.80;39.60;;;;;;5073809;28;20386;-74
2024/01/24 08:12:46;;;;;;;37.87;7.70;;;12.60;40.00;;;;;;5071966;28;20398;-74
2024/01/24 08:15:12;;;;;;;33.10;6.63;;;12.50;40.80;;;;;;5070725;28;20388;-74
2024/01/24 08:17:37;;;;;;;35.72;7.80;;;12.50;41.60;;;;;;5074032;28;20423;-75
2024/01/24 08:20:04;;;;;;;43.37;7.83;;;12.40;42.30;;;;;;5074578;28;20379;-75
2024/01/24 08:22:30;;;;;;;32.72;6.70;;;12.40;41.90;;;;;;5076439;28;20384;-75
2024/01/24 08:24:56;;;;;;;35.60;7.17;;;12.30;42.20;;;;;;5075445;28;20398;-74
2024/01/24 08:27:25;;;;;;;31.40;6.60;;;12.30;41.80;;;;;;5079285;28;20395;-74
2024/01/24 08:29:50;;;;;;;38.25;7.45;;;12.30;41.90;;;;;;5082387;28;20757;-74
2024/01/24 08:32:16;;;;;;;45.93;7.27;;;12.30;43.40;;;;;;5074144;28;20466;-74
2024/01/24 08:34:41;;;;;;;38.30;7.50;;;12.30;46.20;;;;;;5074102;28;20395;-73
2024/01/24 08:37:08;;;;;;;38.60;7.35;;;11.90;51.40;;;;;;5073940;28;20407;-74
2024/01/24 08:39:33;;;;;;;42.13;7.22;;;11.70;53.80;;;;;;5073976;28;20383;-72
2024/01/24 08:41:59;;;;;;;45.60;7.93;;;11.50;55.10;;;;;;5073931;28;20896;-72
2024/01/24 08:44:24;;;;;;;41.70;7.43;;;11.50;56.20;;;;;;5074359;28;20749;-73
2024/01/24 08:46:51;;;;;;;41.40;7.70;;;11.50;55.60;;;;;;5074067;28;20379;-75
2024/01/24 08:49:16;;;;;;;48.63;8.27;;;11.40;55.70;;;;;;5073882;28;20379;-73
2024/01/24 08:51:42;;;;;;;42.88;8.02;;;11.50;55.00;;;;;;5073650;28;20897;-73
2024/01/24 08:54:08;;;;;;;41.03;7.75;;;11.50;54.40;;;;;;5074614;28;20386;-73
2024/01/24 08:56:34;;;;;;;37.15;7.95;;;11.60;54.20;;;;;;5074105;28;20445;-74
2024/01/24 08:58:59;;;;;;;43.10;7.30;;;11.60;52.60;;;;;;5073463;28;20414;-73
2024/01/24 09:01:25;;;;;;;45.95;7.95;;;11.60;50.70;;;;;;5073540;28;20387;-73
2024/01/24 09:03:50;;;;;;;40.47;7.95;;;11.60;49.90;;;;;;5073553;28;20464;-75
2024/01/24 09:06:16;;;;;;;37.42;7.07;;;11.80;46.00;;;;;;5073464;28;20475;-74
2024/01/24 09:08:44;;;;;;;45.92;8.25;;;11.90;43.60;;;;;;5073387;28;20416;-74
2024/01/24 09:11:10;;;;;;;33.67;7.50;;;12.00;43.60;;;;;;5072549;28;20390;-74
2024/01/24 09:13:35;;;;;;;36.70;7.80;;;12.10;39.50;;;;;;5073668;28;20466;-75
2024/01/24 09:16:01;;;;;;;35.70;7.23;;;12.20;38.80;;;;;;5073830;28;20846;-75
2024/01/24 09:18:27;;;;;;;30.02;7.20;;;12.20;38.30;;;;;;5073556;28;20399;-74
2024/01/24 09:20:53;;;;;;;45.93;7.00;;;12.20;36.90;;;;;;5073794;28;20515;-75
2024/01/24 09:23:18;;;;;;;43.20;9.10;;;12.30;36.40;;;;;;5074220;28;20407;-74
2024/01/24 09:25:44;;;;;;;39.93;8.30;;;12.30;35.60;;;;;;5074526;28;20443;-75
2024/01/24 09:28:10;;;;;;;34.40;7.30;;;12.40;35.60;;;;;;5073647;28;20746;-74
2024/01/24 09:30:36;;;;;;;40.53;7.10;;;12.40;35.40;;;;;;5072559;28;20494;-75
2024/01/24 09:33:03;;;;;;;38.67;7.15;;;12.50;35.00;;;;;;5073054;28;20522;-74
2024/01/24 09:35:29;;;;;;;38.90;7.20;;;12.50;35.40;;;;;;5073874;28;20387;-74
2024/01/24 09:37:55;;;;;;;41.07;8.07;;;12.50;34.80;;;;;;5073392;28;20415;-72
2024/01/24 09:40:21;;;;;;;39.80;7.95;;;12.50;35.00;;;;;;5074638;28;20382;-72
2024/01/24 09:42:46;;;;;;;36.70;7.73;;;12.60;34.80;;;;;;5074756;28;20857;-73
2024/01/24 09:45:14;;;;;;;41.50;8.83;;;12.60;34.50;;;;;;5073646;28;20421;-72
2024/01/24 09:47:41;;;;;;;44.97;8.90;;;12.60;34.80;;;;;;5073890;28;20423;-74
2024/01/24 09:50:09;;;;;;;37.10;7.90;;;12.70;34.50;;;;;;5074290;28;20482;-74
2024/01/24 09:52:35;;;;;;;49.00;9.13;;;12.70;33.90;;;;;;5057127;28;20402;-73
2024/01/24 09:55:06;;;;;;;38.05;7.10;;;12.70;34.10;;;;;;5074364;28;20448;-74
2024/01/24 09:57:32;;;;;;;38.42;8.23;;;12.70;34.30;;;;;;5074456;28;20403;-75
2024/01/24 09:59:58;;;;;;;46.28;10.18;;;12.70;34.20;;;;;;5073026;28;20392;-72
2024/01/24 10:02:26;;;;;;;37.97;7.40;;;12.80;34.10;;;;;;5054662;28;20848;-73
2024/01/24 10:04:52;;;;;;;44.90;8.98;;;12.80;34.00;;;;;;5074779;28;20425;-74
2024/01/24 10:07:19;;;;;;;34.38;7.53;;;12.80;34.10;;;;;;5075441;28;20842;-74
2024/01/24 10:09:46;;;;;;;38.92;7.32;;;12.80;34.40;;;;;;5054231;28;20839;-74
2024/01/24 10:12:11;;;;;;;54.80;9.48;;;12.80;34.00;;;;;;5072278;28;20388;-74
2024/01/24 10:14:40;;;;;;;44.95;8.23;;;12.80;34.10;;;;;;5072497;28;20391;-74
2024/01/24 10:17:09;;;;;;;45.40;8.45;;;12.70;34.20;;;;;;5071646;28;20394;-73
2024/01/24 10:19:34;;;;;;;41.63;7.80;;;12.70;34.30;;;;;;5072472;28;20441;-73
2024/01/24 10:22:00;;;;;;;47.40;9.13;;;12.70;34.30;;;;;;5072043;28;20399;-73
2024/01/24 10:24:27;;;;;;;41.50;8.03;;;12.70;34.20;;;;;;5072158;28;20874;-74
2024/01/24 10:26:53;;;;;;;38.85;7.78;;;12.80;34.30;;;;;;5072926;28;20451;-73
2024/01/24 10:29:19;;;;;;;45.88;8.70;;;12.80;34.50;;;;;;5072079;28;20586;-73
2024/01/24 10:31:44;;;;;;;43.65;8.00;;;12.90;34.30;;;;;;5072290;28;20429;-73
2024/01/24 10:34:10;;;;;;;42.33;7.70;;;12.80;34.30;;;;;;5072074;28;20945;-73
2024/01/24 10:36:38;;;;;;;47.30;7.30;;;12.90;34.40;;;;;;5073874;28;20878;-73
2024/01/24 10:39:09;;;;;;;40.15;8.27;;;12.90;34.50;;;;;;5072995;28;20414;-73
2024/01/24 10:41:40;;;;;;;41.97;7.78;;;12.90;34.20;;;;;;5073209;28;20383;-74
2024/01/24 10:44:10;;;;;;;52.65;8.45;;;12.90;34.20;;;;;;5073351;28;20954;-74
2024/01/24 10:46:39;;;;;;;44.22;7.60;;;12.90;34.20;;;;;;5072355;28;20838;-74
2024/01/24 10:49:05;;;;;;;44.95;8.40;;;12.90;33.80;;;;;;5072771;28;20431;-74
2024/01/24 10:51:31;;;;;;;45.22;8.00;;;12.90;33.30;;;;;;5072048;28;20475;-74
2024/01/24 10:53:58;;;;;;;47.97;7.45;;;12.90;33.20;;;;;;5074264;28;20383;-73
2024/01/24 10:56:24;;;;;;;42.35;7.63;;;13.00;33.40;;;;;;5075311;28;20374;-74
2024/01/24 10:58:50;;;;;;;36.37;7.40;;;13.00;33.10;;;;;;5072701;28;20407;-74
2024/01/24 11:01:16;;;;;;;34.30;7.80;;;13.00;33.00;;;;;;5073075;28;20379;-75
2024/01/24 11:03:44;;;;;;;45.90;7.90;;;13.10;32.70;;;;;;5072272;28;20383;-73
2024/01/24 11:06:15;;;;;;;41.00;7.93;;;13.00;32.50;;;;;;5072380;28;20467;-74
2024/01/24 11:08:56;;;;;;;45.70;8.20;;;13.00;32.40;;;;;;5071929;28;20524;-74
2024/01/24 11:11:23;;;;;;;38.40;8.20;;;13.00;32.20;;;;;;5071065;28;20394;-73
2024/01/24 11:13:51;;;;;;;45.55;8.63;;;13.00;32.50;;;;;;5071681;28;20470;-74
2024/01/24 11:16:26;;;;;;;38.10;7.68;;;12.90;32.70;;;;;;5071126;28;20694;-73
2024/01/24 11:18:52;;;;;;;34.63;7.55;;;13.00;32.60;;;;;;5071516;28;20497;-73
2024/01/24 11:21:21;;;;;;;40.70;8.07;;;13.10;32.30;;;;;;5070928;28;20724;-74
2024/01/24 11:23:50;;;;;;;39.15;6.65;;;13.20;31.80;;;;;;5071317;28;20379;-73
2024/01/24 11:26:18;;;;;;;32.90;6.85;;;13.20;31.60;;;;;;5071629;28;20411;-73
2024/01/24 11:28:45;;;;;;;38.73;7.50;;;13.20;31.50;;;;;;5071164;28;20550;-73
2024/01/24 11:31:11;;;;;;;45.53;8.50;;;13.20;31.50;;;;;;5071705;28;20395;-74
2024/01/24 11:34:09;;;;;;;36.88;7.30;;;13.20;31.20;;;;;;5071841;28;20392;-74
2024/01/24 11:37:00;;;;;;;42.75;7.07;;;13.10;31.70;;;;;;5078561;28;20422;-73
2024/01/24 11:39:32;;;;;;;38.40;7.40;;;13.10;31.80;;;;;;5089737;28;20469;-74
2024/01/24 11:42:26;;;;;;;36.30;6.73;;;13.10;32.30;;;;;;5071815;28;20449;-73
2024/01/24 11:44:52;;;;;;;38.45;7.57;;;13.10;31.70;;;;;;5071952;28;20862;-73
2024/01/24 11:47:19;;;;;;;37.20;7.30;;;13.00;31.90;;;;;;5071844;28;20460;-74
2024/01/24 11:49:49;;;;;;;43.63;8.40;;;13.00;32.20;;;;;;5071238;28;20391;-74
2024/01/24 11:52:20;;;;;;;35.60;7.53;;;13.00;32.30;;;;;;5070932;28;20453;-73
2024/01/24 11:54:54;;;;;;;32.90;7.67;;;13.10;32.70;;;;;;5070192;28;20372;-74
2024/01/24 11:57:20;;;;;;;43.70;8.40;;;13.10;31.80;;;;;;5071428;28;20414;-74
2024/01/24 11:59:45;;;;;;;41.60;7.37;;;13.10;31.60;;;;;;5070775;28;20371;-73
2024/01/24 12:02:11;;;;;;;47.73;7.80;;;13.10;31.90;;;;;;5070936;28;20383;-73
2024/01/24 12:04:37;;;;;;;40.90;8.30;;;13.10;31.40;;;;;;5073963;28;20376;-73
2024/01/24 12:07:02;;;;;;;37.55;7.35;;;13.20;31.40;;;;;;5054084;28;20384;-74
2024/01/24 12:09:28;;;;;;;30.10;6.53;;;13.10;30.50;;;;;;5070854;28;20390;-74
2024/01/24 12:11:53;;;;;;;36.40;6.80;;;13.10;30.40;;;;;;5070925;28;20405;-74
2024/01/24 12:14:20;;;;;;;33.17;6.77;;;13.10;30.40;;;;;;5074613;28;20471;-74
2024/01/24 12:16:47;;;;;;;33.25;6.70;;;13.00;30.50;;;;;;5070761;28;20421;-72
2024/01/24 12:19:14;;;;;;;41.70;6.88;;;13.00;30.70;;;;;;5070950;28;20486;-73
2024/01/24 12:21:40;;;;;;;34.17;7.40;;;13.10;30.80;;;;;;5070313;28;20505;-73
2024/01/24 12:24:07;;;;;;;39.45;7.28;;;13.00;30.60;;;;;;5070329;28;20835;-74
2024/01/24 12:26:32;;;;;;;35.47;6.90;;;13.10;30.40;;;;;;5070617;28;20375;-73
2024/01/24 12:28:59;;;;;;;36.25;6.80;;;13.00;30.20;;;;;;5070770;28;20384;-74
2024/01/24 12:31:28;;;;;;;34.45;7.32;;;13.00;30.70;;;;;;5070190;28;20902;-74
2024/01/24 12:33:55;;;;;;;40.40;6.82;;;13.00;30.40;;;;;;5070797;28;20875;-73
2024/01/24 12:36:22;;;;;;;36.67;6.68;;;12.90;30.60;;;;;;5070158;28;20387;-73